createdAt,value
2023-05-12T00:00:03.091Z,12.36
2023-05-12T00:02:31.691Z,12.35
2023-05-12T00:04:58.235Z,12.31
2023-05-12T00:07:24.842Z,12.33
2023-05-12T00:09:51.346Z,12.43
2023-05-12T00:12:18.586Z,12.34
2023-05-12T00:14:45.694Z,12.31
2023-05-12T00:17:13.791Z,12.37
2023-05-12T00:19:43.772Z,12.37
2023-05-12T00:22:11.465Z,12.39
2023-05-12T00:24:38.369Z,12.35
2023-05-12T00:27:05.718Z,12.46
2023-05-12T00:29:33.007Z,12.25
2023-05-12T00:31:59.744Z,12.29
2023-05-12T00:34:27.132Z,12.27
2023-05-12T00:36:53.628Z,12.15
2023-05-12T00:39:20.116Z,12.16
2023-05-12T00:41:47.762Z,12.07
2023-05-12T00:44:14.359Z,12.10
2023-05-12T00:46:41.129Z,12.03
2023-05-12T00:49:07.811Z,11.98
2023-05-12T00:51:34.546Z,12.05
2023-05-12T00:54:01.272Z,12.01
2023-05-12T00:56:28.297Z,12.04
2023-05-12T00:58:54.915Z,11.90
2023-05-12T01:01:21.616Z,11.96
2023-05-12T01:03:48.122Z,11.97
2023-05-12T01:06:22.165Z,11.97
2023-05-12T01:08:49.318Z,11.94
2023-05-12T01:11:15.881Z,11.90
2023-05-12T01:13:42.648Z,11.79
2023-05-12T01:16:13.146Z,11.88
2023-05-12T01:18:42.771Z,11.87
2023-05-12T01:21:11.244Z,11.79
2023-05-12T01:23:42.604Z,11.96
2023-05-12T01:26:10.329Z,11.93
2023-05-12T01:28:37.687Z,11.91
2023-05-12T01:31:06.215Z,11.96
2023-05-12T01:33:34.041Z,11.91
2023-05-12T01:36:00.564Z,11.91
2023-05-12T01:38:28.345Z,11.96
2023-05-12T01:40:56.283Z,12.05
2023-05-12T01:43:22.968Z,12.10
2023-05-12T01:45:49.461Z,12.04
2023-05-12T01:48:16.349Z,11.91
2023-05-12T01:50:43.044Z,11.88
2023-05-12T01:53:10.600Z,11.89
2023-05-12T01:55:37.235Z,11.79
2023-05-12T01:58:04.040Z,11.81
2023-05-12T02:00:30.716Z,11.79
2023-05-12T02:02:57.611Z,11.78
2023-05-12T02:05:24.137Z,11.74
2023-05-12T02:07:50.910Z,11.77
2023-05-12T02:10:18.344Z,11.65
2023-05-12T02:12:45.213Z,11.71
2023-05-12T02:15:11.815Z,11.64
2023-05-12T02:17:38.679Z,11.73
2023-05-12T02:20:06.028Z,11.79
2023-05-12T02:22:33.755Z,11.78
2023-05-12T02:25:00.392Z,11.78
2023-05-12T02:27:27.013Z,11.83
2023-05-12T02:29:53.995Z,11.83
2023-05-12T02:32:21.566Z,11.78
2023-05-12T02:34:48.129Z,11.78
2023-05-12T02:37:14.644Z,11.80
2023-05-12T02:39:41.188Z,11.78
2023-05-12T02:42:07.858Z,11.83
2023-05-12T02:44:34.355Z,11.87
2023-05-12T02:47:01.051Z,11.82
2023-05-12T02:49:27.535Z,11.76
2023-05-12T02:51:55.128Z,11.68
2023-05-12T02:54:21.687Z,11.72
2023-05-12T02:56:48.377Z,11.76
2023-05-12T02:59:14.882Z,11.91
2023-05-12T03:01:41.415Z,11.93
2023-05-12T03:04:09.260Z,12.01
2023-05-12T03:06:35.692Z,11.99
2023-05-12T03:09:02.248Z,11.85
2023-05-12T03:11:28.813Z,11.84
2023-05-12T03:13:55.604Z,11.91
2023-05-12T03:16:22.154Z,11.87
2023-05-12T03:18:49.074Z,11.75
2023-05-12T03:21:15.847Z,11.73
2023-05-12T03:23:43.046Z,11.66
2023-05-12T03:26:09.546Z,11.76
2023-05-12T03:28:35.970Z,11.75
2023-05-12T03:31:02.413Z,11.82
2023-05-12T03:33:30.236Z,11.95
2023-05-12T03:35:57.030Z,11.85
2023-05-12T03:38:23.705Z,11.76
2023-05-12T03:40:52.843Z,11.78
2023-05-12T03:43:19.617Z,11.76
2023-05-12T03:45:46.500Z,11.68
2023-05-12T03:48:13.071Z,11.64
2023-05-12T03:50:39.483Z,11.69
2023-05-12T03:53:06.023Z,11.80
2023-05-12T03:55:32.457Z,11.85
2023-05-12T03:57:59.407Z,11.80
2023-05-12T04:00:26.089Z,11.75
2023-05-12T04:02:52.718Z,11.77
2023-05-12T04:05:19.191Z,11.83
2023-05-12T04:07:45.960Z,11.81
2023-05-12T04:10:12.445Z,11.78
2023-05-12T04:12:39.244Z,11.81
2023-05-12T04:15:06.807Z,11.91
2023-05-12T04:17:34.440Z,11.92
2023-05-12T04:20:01.075Z,11.85
2023-05-12T04:22:27.687Z,11.91
2023-05-12T04:24:54.168Z,11.92
2023-05-12T04:27:20.547Z,11.93
2023-05-12T04:29:47.196Z,11.94
2023-05-12T04:32:13.823Z,12.04
2023-05-12T04:34:41.409Z,12.08
2023-05-12T04:37:08.118Z,12.09
2023-05-12T04:39:34.769Z,12.13
2023-05-12T04:42:02.103Z,12.18
2023-05-12T04:44:28.528Z,12.20
2023-05-12T04:46:56.357Z,12.19
2023-05-12T04:49:23.083Z,12.23
2023-05-12T04:51:49.589Z,12.23
2023-05-12T04:54:16.267Z,12.25
2023-05-12T04:56:42.741Z,12.42
2023-05-12T04:59:09.344Z,12.49
2023-05-12T05:01:35.860Z,12.40
2023-05-12T05:04:02.644Z,12.34
2023-05-12T05:06:29.061Z,12.33
2023-05-12T05:08:55.836Z,12.39
2023-05-12T05:11:22.768Z,12.49
2023-05-12T05:13:49.900Z,12.55
2023-05-12T05:16:16.892Z,12.47
2023-05-12T05:18:46.432Z,12.57
2023-05-12T05:21:16.732Z,12.63
2023-05-12T05:23:43.634Z,12.71
2023-05-12T05:26:10.601Z,12.71
2023-05-12T05:28:39.712Z,12.78
2023-05-12T05:31:06.891Z,12.82
2023-05-12T05:33:33.631Z,12.91
2023-05-12T05:36:00.220Z,12.90
2023-05-12T05:38:27.086Z,12.97
2023-05-12T05:40:54.678Z,12.95
2023-05-12T05:43:21.592Z,13.10
2023-05-12T05:45:49.699Z,13.05
2023-05-12T05:48:16.714Z,12.96
2023-05-12T05:50:43.642Z,12.99
2023-05-12T05:53:10.288Z,13.08
2023-05-12T05:55:36.825Z,12.92
2023-05-12T05:58:03.540Z,12.87
2023-05-12T06:00:30.080Z,12.86
2023-05-12T06:02:57.128Z,13.10
2023-05-12T06:05:23.695Z,13.23
2023-05-12T06:07:50.419Z,13.39
2023-05-12T06:10:16.962Z,13.64
2023-05-12T06:12:43.492Z,13.66
2023-05-12T06:15:11.127Z,13.72
2023-05-12T06:17:38.255Z,13.67
2023-05-12T06:20:06.511Z,13.82
2023-05-12T06:22:34.682Z,13.83
2023-05-12T06:25:02.129Z,13.84
2023-05-12T06:27:28.948Z,13.91
2023-05-12T06:29:55.523Z,13.86
2023-05-12T06:32:22.007Z,13.57
2023-05-12T06:34:48.862Z,13.69
2023-05-12T06:37:15.215Z,13.93
2023-05-12T06:39:41.728Z,13.76
2023-05-12T06:42:08.546Z,13.87
2023-05-12T06:44:35.003Z,13.94
2023-05-12T06:47:01.548Z,14.21
2023-05-12T06:49:28.019Z,14.45
2023-05-12T06:51:54.573Z,14.59
2023-05-12T06:54:21.102Z,14.86
2023-05-12T06:56:47.675Z,14.61
2023-05-12T06:59:14.383Z,14.65
2023-05-12T07:01:42.941Z,14.88
2023-05-12T07:04:09.519Z,14.64
2023-05-12T07:06:36.062Z,14.48
2023-05-12T07:09:02.651Z,14.54
2023-05-12T07:11:29.445Z,14.37
2023-05-12T07:13:56.355Z,14.72
2023-05-12T07:16:22.903Z,14.53
2023-05-12T07:18:49.736Z,14.51
2023-05-12T07:21:16.371Z,14.11
2023-05-12T07:23:42.861Z,14.16
2023-05-12T07:26:10.822Z,14.20
2023-05-12T07:28:38.023Z,14.54
2023-05-12T07:31:07.145Z,14.74
2023-05-12T07:33:35.231Z,14.61
2023-05-12T07:36:04.529Z,14.36
2023-05-12T07:38:31.868Z,14.20
2023-05-12T07:40:59.394Z,14.38
2023-05-12T07:43:26.285Z,14.55
2023-05-12T07:45:52.784Z,14.81
2023-05-12T07:48:19.334Z,14.85
2023-05-12T07:50:45.861Z,14.57
2023-05-12T07:53:13.113Z,14.76
2023-05-12T07:55:39.581Z,15.02
2023-05-12T07:58:06.038Z,15.11
2023-05-12T08:00:32.594Z,15.05
2023-05-12T08:03:00.171Z,15.04
2023-05-12T08:05:26.960Z,15.31
2023-05-12T08:07:53.771Z,15.47
2023-05-12T08:10:20.336Z,15.13
2023-05-12T08:12:47.074Z,15.12
2023-05-12T08:15:13.621Z,15.82
2023-05-12T08:17:40.150Z,15.83
2023-05-12T08:20:07.126Z,16.09
2023-05-12T08:22:34.100Z,16.18
2023-05-12T08:25:00.570Z,15.96
2023-05-12T08:27:27.475Z,15.92
2023-05-12T08:29:53.888Z,15.84
2023-05-12T08:32:20.645Z,16.02
2023-05-12T08:34:47.309Z,16.18
2023-05-12T08:37:13.955Z,16.00
2023-05-12T08:39:40.790Z,15.76
2023-05-12T08:42:22.337Z,15.85
2023-05-12T08:44:49.271Z,16.23
2023-05-12T08:47:18.730Z,16.20
2023-05-12T08:49:46.603Z,16.48
2023-05-12T08:52:14.916Z,16.23
2023-05-12T08:54:52.346Z,16.12
2023-05-12T08:57:23.182Z,15.79
2023-05-12T08:59:49.957Z,15.62
2023-05-12T09:02:17.349Z,15.75
2023-05-12T09:04:44.142Z,15.63
2023-05-12T09:07:11.161Z,15.49
2023-05-12T09:09:38.345Z,15.70
2023-05-12T09:12:08.911Z,15.93
2023-05-12T09:14:37.595Z,16.22
2023-05-12T09:17:04.970Z,15.86
2023-05-12T09:19:32.456Z,16.01
2023-05-12T09:22:00.258Z,16.63
2023-05-12T09:24:40.528Z,17.00
2023-05-12T09:27:07.642Z,16.93
2023-05-12T09:29:42.155Z,16.92
2023-05-12T09:32:14.680Z,16.87
2023-05-12T09:34:43.403Z,17.23
2023-05-12T09:37:10.018Z,17.59
2023-05-12T09:39:38.878Z,17.27
2023-05-12T09:42:11.425Z,17.68
2023-05-12T09:44:38.681Z,17.75
2023-05-12T09:47:10.050Z,17.78
2023-05-12T09:49:36.640Z,17.91
2023-05-12T09:52:04.184Z,18.30
2023-05-12T09:54:32.108Z,18.06
2023-05-12T09:57:00.705Z,17.55
2023-05-12T09:59:30.999Z,18.92
2023-05-12T10:02:00.861Z,19.00
2023-05-12T10:04:58.452Z,19.11
2023-05-12T10:07:27.527Z,19.05
2023-05-12T10:09:59.294Z,19.43
2023-05-12T10:12:25.846Z,19.88
2023-05-12T10:14:53.915Z,19.67
2023-05-12T10:17:21.028Z,19.74
2023-05-12T10:19:48.936Z,19.16
2023-05-12T10:22:17.276Z,19.32
2023-05-12T10:24:45.591Z,19.44
2023-05-12T10:27:13.582Z,19.24
2023-05-12T10:29:41.009Z,19.52
2023-05-12T10:32:07.753Z,18.80
2023-05-12T10:34:36.611Z,18.79
2023-05-12T10:37:10.959Z,20.23
2023-05-12T10:39:47.359Z,20.14
2023-05-12T10:42:17.072Z,19.38
2023-05-12T10:44:51.885Z,19.04
2023-05-12T10:47:18.878Z,18.92
2023-05-12T10:49:48.183Z,19.51
2023-05-12T10:52:20.119Z,18.85
2023-05-12T10:54:47.013Z,18.72
2023-05-12T10:57:18.188Z,18.28
2023-05-12T10:59:50.871Z,18.17
2023-05-12T11:02:20.974Z,18.39
2023-05-12T11:04:53.502Z,18.46
2023-05-12T11:07:27.070Z,17.96
2023-05-12T11:09:59.217Z,17.64
2023-05-12T11:12:32.407Z,17.69
2023-05-12T11:15:01.713Z,17.86
2023-05-12T11:17:29.044Z,17.96
2023-05-12T11:19:56.728Z,18.13
2023-05-12T11:22:24.190Z,17.97
2023-05-12T11:24:52.379Z,17.86
2023-05-12T11:27:20.554Z,17.69
2023-05-12T11:29:59.916Z,17.86
2023-05-12T11:32:27.376Z,18.10
2023-05-12T11:34:55.650Z,18.33
2023-05-12T11:37:22.670Z,17.62
2023-05-12T11:39:49.319Z,17.79
2023-05-12T11:42:19.688Z,17.69
2023-05-12T11:44:50.599Z,17.96
2023-05-12T11:47:19.557Z,18.16
2023-05-12T11:49:52.017Z,18.10
2023-05-12T11:52:19.702Z,17.93
2023-05-12T11:55:00.709Z,18.24
2023-05-12T11:57:27.929Z,18.50
2023-05-12T12:00:00.138Z,18.65
2023-05-12T12:02:27.371Z,18.87
2023-05-12T12:04:54.066Z,18.88
2023-05-12T12:07:31.522Z,18.45
2023-05-12T12:09:59.231Z,18.22
2023-05-12T12:12:25.974Z,18.72
2023-05-12T12:14:52.439Z,18.29
2023-05-12T12:17:18.824Z,18.47
2023-05-12T12:19:47.642Z,18.12
2023-05-12T12:22:14.154Z,17.95
2023-05-12T12:24:40.730Z,18.24
2023-05-12T12:27:07.167Z,18.14
2023-05-12T12:29:34.143Z,17.98
2023-05-12T12:32:00.705Z,17.96
2023-05-12T12:34:27.315Z,17.71
2023-05-12T12:36:53.747Z,17.63
2023-05-12T12:39:21.658Z,17.87
2023-05-12T12:41:48.240Z,17.79
2023-05-12T12:44:15.165Z,17.90
2023-05-12T12:46:42.121Z,17.86
2023-05-12T12:49:08.571Z,17.85
2023-05-12T12:51:45.148Z,17.92
2023-05-12T12:54:13.059Z,17.79
2023-05-12T12:56:39.698Z,18.23
2023-05-12T12:59:06.367Z,18.27
2023-05-12T13:01:33.840Z,18.26
2023-05-12T13:04:01.063Z,18.17
2023-05-12T13:06:27.680Z,18.25
2023-05-12T13:08:54.048Z,18.77
2023-05-12T13:11:20.506Z,18.26
2023-05-12T13:13:47.026Z,18.04
2023-05-12T13:16:13.827Z,17.90
2023-05-12T13:18:40.371Z,17.66
2023-05-12T13:21:06.821Z,17.73
2023-05-12T13:23:33.238Z,17.69
2023-05-12T13:25:59.749Z,17.76
2023-05-12T13:28:26.768Z,17.61
2023-05-12T13:30:53.351Z,17.59
2023-05-12T13:33:20.314Z,17.54
2023-05-12T13:35:47.030Z,17.50
2023-05-12T13:38:13.723Z,17.45
2023-05-12T13:40:41.469Z,17.71
2023-05-12T13:43:08.404Z,17.72
2023-05-12T13:45:34.822Z,17.64
2023-05-12T13:48:01.388Z,17.57
2023-05-12T13:50:28.352Z,17.86
2023-05-12T13:52:55.166Z,18.04
2023-05-12T13:55:22.081Z,18.28
2023-05-12T13:57:49.287Z,18.16
2023-05-12T14:00:18.630Z,18.26
2023-05-12T14:02:45.551Z,18.53
2023-05-12T14:05:12.026Z,18.87
2023-05-12T14:07:38.482Z,18.51
2023-05-12T14:10:05.455Z,18.52
2023-05-12T14:12:32.356Z,18.75
2023-05-12T14:15:11.215Z,18.75
2023-05-12T14:17:46.283Z,19.03
2023-05-12T14:20:13.082Z,19.08
2023-05-12T14:22:41.763Z,19.38
2023-05-12T14:25:08.649Z,19.24
2023-05-12T14:27:35.484Z,19.55
2023-05-12T14:30:02.284Z,20.07
2023-05-12T14:32:29.036Z,19.43
2023-05-12T14:34:55.745Z,19.57
2023-05-12T14:37:22.287Z,19.55
2023-05-12T14:39:48.779Z,19.23
2023-05-12T14:42:15.288Z,19.39
2023-05-12T14:44:41.714Z,19.27
2023-05-12T14:47:09.194Z,19.40
2023-05-12T14:49:35.945Z,18.99
2023-05-12T14:52:02.839Z,18.39
2023-05-12T14:54:29.396Z,18.05
2023-05-12T14:56:56.535Z,18.06
2023-05-12T14:59:23.169Z,17.87
2023-05-12T15:01:49.766Z,17.55
2023-05-12T15:04:16.368Z,17.29
2023-05-12T15:06:42.923Z,17.17
2023-05-12T15:09:09.587Z,17.09
2023-05-12T15:11:36.817Z,17.10
2023-05-12T15:14:04.650Z,16.81
2023-05-12T15:16:33.006Z,16.95
2023-05-12T15:18:59.699Z,16.82
2023-05-12T15:21:26.086Z,16.59
2023-05-12T15:23:52.544Z,16.58
2023-05-12T15:26:32.123Z,16.64
2023-05-12T15:28:59.835Z,16.59
2023-05-12T15:31:28.700Z,16.50
2023-05-12T15:33:56.580Z,16.47
2023-05-12T15:36:23.250Z,16.33
2023-05-12T15:38:49.732Z,16.53
2023-05-12T15:41:16.289Z,16.65
2023-05-12T15:43:42.881Z,16.60
2023-05-12T15:46:10.859Z,16.65
2023-05-12T15:48:39.103Z,16.62
2023-05-12T15:51:05.677Z,16.52
2023-05-12T15:53:32.216Z,16.65
2023-05-12T15:56:03.668Z,16.69
2023-05-12T15:58:30.643Z,16.92
2023-05-12T16:00:57.234Z,17.23
2023-05-12T16:03:24.308Z,17.12
2023-05-12T16:05:51.111Z,16.85
2023-05-12T16:08:18.892Z,16.80
2023-05-12T16:10:45.601Z,17.23
2023-05-12T16:13:12.173Z,17.15
2023-05-12T16:15:38.713Z,17.12
2023-05-12T16:18:09.150Z,17.17
2023-05-12T16:20:37.523Z,17.43
2023-05-12T16:23:04.562Z,17.68
2023-05-12T16:25:31.543Z,18.31
2023-05-12T16:27:58.218Z,18.44
2023-05-12T16:30:25.008Z,18.23
2023-05-12T16:32:51.486Z,18.86
2023-05-12T16:35:18.216Z,19.09
2023-05-12T16:37:46.279Z,19.16
2023-05-12T16:40:12.721Z,19.04
2023-05-12T16:42:39.672Z,18.78
2023-05-12T16:45:06.961Z,18.81
2023-05-12T16:47:34.092Z,18.75
2023-05-12T16:50:00.761Z,18.53
2023-05-12T16:52:27.495Z,18.14
2023-05-12T16:54:55.809Z,17.63
2023-05-12T16:57:22.366Z,17.26
2023-05-12T16:59:48.734Z,17.32
2023-05-12T17:02:15.840Z,17.36
2023-05-12T17:04:43.281Z,17.03
2023-05-12T17:07:09.666Z,17.11
2023-05-12T17:09:36.634Z,16.99
2023-05-12T17:12:04.335Z,17.05
2023-05-12T17:14:30.906Z,16.95
2023-05-12T17:16:57.557Z,16.84
2023-05-12T17:19:24.027Z,17.57
2023-05-12T17:21:51.013Z,18.16
2023-05-12T17:24:18.338Z,18.74
2023-05-12T17:26:45.265Z,18.62
2023-05-12T17:29:11.959Z,18.70
2023-05-12T17:31:38.765Z,18.18
2023-05-12T17:34:05.811Z,17.75
2023-05-12T17:36:33.188Z,17.31
2023-05-12T17:38:59.952Z,16.90
2023-05-12T17:41:28.972Z,16.63
2023-05-12T17:43:55.910Z,16.49
2023-05-12T17:46:23.070Z,16.27
2023-05-12T17:48:49.973Z,16.19
2023-05-12T17:51:16.877Z,16.23
2023-05-12T17:53:43.840Z,16.52
2023-05-12T17:56:11.366Z,16.93
2023-05-12T17:58:37.955Z,17.10
2023-05-12T18:01:04.467Z,17.12
2023-05-12T18:03:30.925Z,16.99
2023-05-12T18:05:57.430Z,17.03
2023-05-12T18:08:23.921Z,17.07
2023-05-12T18:10:50.423Z,17.15
2023-05-12T18:13:17.272Z,16.98
2023-05-12T18:15:43.781Z,16.67
2023-05-12T18:18:10.899Z,16.50
2023-05-12T18:20:37.857Z,16.50
2023-05-12T18:23:04.842Z,16.64
2023-05-12T18:25:31.744Z,16.47
2023-05-12T18:27:58.282Z,16.22
2023-05-12T18:30:24.975Z,15.87
2023-05-12T18:32:51.883Z,15.91
2023-05-12T18:35:18.417Z,15.62
2023-05-12T18:37:45.082Z,15.61
2023-05-12T18:40:12.181Z,15.50
2023-05-12T18:42:38.844Z,15.45
2023-05-12T18:45:06.077Z,15.40
2023-05-12T18:47:33.532Z,15.27
2023-05-12T18:50:00.325Z,15.28
2023-05-12T18:52:26.831Z,15.18
2023-05-12T18:54:53.297Z,15.02
2023-05-12T18:57:19.800Z,14.82
2023-05-12T18:59:46.244Z,14.84
2023-05-12T19:02:13.348Z,14.52
2023-05-12T19:04:39.863Z,14.55
2023-05-12T19:07:09.482Z,14.29
2023-05-12T19:09:36.834Z,14.36
2023-05-12T19:12:05.635Z,14.44
2023-05-12T19:14:32.225Z,14.38
2023-05-12T19:16:58.624Z,14.32
2023-05-12T19:19:26.010Z,14.34
2023-05-12T19:21:52.702Z,14.38
2023-05-12T19:24:19.502Z,14.24
2023-05-12T19:26:46.538Z,13.93
2023-05-12T19:29:13.828Z,13.84
2023-05-12T19:31:40.526Z,13.62
2023-05-12T19:34:07.831Z,13.52
2023-05-12T19:36:35.822Z,13.53
2023-05-12T19:39:02.852Z,13.63
2023-05-12T19:41:29.645Z,13.67
2023-05-12T19:43:56.377Z,13.62
2023-05-12T19:46:23.422Z,13.84
2023-05-12T19:48:51.209Z,13.83
2023-05-12T19:51:17.676Z,13.70
2023-05-12T19:53:44.303Z,13.39
2023-05-12T19:56:10.696Z,13.32
2023-05-12T19:58:38.217Z,13.50
2023-05-12T20:01:04.905Z,13.27
2023-05-12T20:03:32.051Z,13.27
2023-05-12T20:05:58.865Z,13.01
2023-05-12T20:08:25.643Z,12.87
2023-05-12T20:10:52.296Z,12.97
2023-05-12T20:13:18.725Z,12.85
2023-05-12T20:15:45.310Z,12.72
2023-05-12T20:18:14.609Z,12.61
2023-05-12T20:20:42.131Z,12.56
2023-05-12T20:23:09.466Z,12.67
2023-05-12T20:25:36.556Z,12.77
2023-05-12T20:28:03.504Z,12.64
2023-05-12T20:30:31.227Z,12.58
2023-05-12T20:32:57.873Z,12.47
2023-05-12T20:35:24.610Z,12.42
2023-05-12T20:37:51.508Z,12.38
2023-05-12T20:40:19.701Z,12.34
2023-05-12T20:42:46.984Z,12.55
2023-05-12T20:45:14.303Z,12.53
2023-05-12T20:47:41.947Z,12.56
2023-05-12T20:50:09.295Z,12.63
2023-05-12T20:52:37.331Z,12.52
2023-05-12T20:55:07.906Z,12.47
2023-05-12T20:57:34.604Z,12.47
2023-05-12T21:00:01.412Z,12.39
2023-05-12T21:02:28.619Z,12.45
2023-05-12T21:04:55.956Z,12.41
2023-05-12T21:07:22.408Z,12.47
2023-05-12T21:09:49.419Z,12.36
2023-05-12T21:12:16.098Z,12.22
2023-05-12T21:14:44.181Z,12.35
2023-05-12T21:17:12.033Z,12.35
2023-05-12T21:19:40.658Z,12.44
2023-05-12T21:22:08.262Z,12.30
2023-05-12T21:24:36.336Z,12.34
2023-05-12T21:27:04.164Z,12.19
2023-05-12T21:29:31.923Z,12.36
2023-05-12T21:31:58.857Z,12.23
2023-05-12T21:34:25.856Z,12.32
2023-05-12T21:36:52.471Z,12.42
2023-05-12T21:39:18.955Z,12.42
2023-05-12T21:41:45.905Z,12.36
2023-05-12T21:44:12.846Z,12.38
2023-05-12T21:46:39.748Z,12.24
2023-05-12T21:49:06.332Z,12.31
2023-05-12T21:51:35.456Z,12.34
2023-05-12T21:54:02.135Z,12.38
2023-05-12T21:56:28.572Z,12.41
2023-05-12T21:58:55.732Z,12.52
2023-05-12T22:01:22.389Z,12.53
2023-05-12T22:03:49.593Z,12.58
2023-05-12T22:06:16.317Z,12.47
2023-05-12T22:08:43.889Z,12.46
2023-05-12T22:11:11.158Z,12.68
2023-05-12T22:13:37.892Z,12.42
2023-05-12T22:16:04.856Z,12.28
2023-05-12T22:18:31.900Z,12.26
2023-05-12T22:20:58.873Z,12.44
2023-05-12T22:23:25.306Z,12.42
2023-05-12T22:25:51.965Z,12.43
2023-05-12T22:28:18.538Z,12.44
2023-05-12T22:30:45.133Z,12.22
2023-05-12T22:33:11.631Z,12.03
2023-05-12T22:35:38.118Z,12.01
2023-05-12T22:38:04.855Z,12.05
2023-05-12T22:40:32.773Z,12.03
2023-05-12T22:43:01.148Z,12.05
2023-05-12T22:45:28.102Z,11.94
2023-05-12T22:47:54.935Z,11.77
2023-05-12T22:50:21.631Z,11.81
2023-05-12T22:52:48.795Z,11.67
2023-05-12T22:55:15.699Z,11.52
2023-05-12T22:57:43.641Z,11.48
2023-05-12T23:00:10.543Z,11.42
2023-05-12T23:02:37.503Z,11.37
2023-05-12T23:05:04.509Z,11.34
2023-05-12T23:07:31.053Z,11.31
2023-05-12T23:09:58.682Z,11.36
2023-05-12T23:12:25.739Z,11.40
2023-05-12T23:14:52.173Z,11.31
2023-05-12T23:17:20.619Z,11.28
2023-05-12T23:19:47.132Z,11.23
2023-05-12T23:22:13.639Z,11.32
2023-05-12T23:24:40.546Z,11.36
2023-05-12T23:27:07.149Z,11.31
2023-05-12T23:29:34.439Z,11.48
2023-05-12T23:32:01.340Z,11.35
2023-05-12T23:34:28.312Z,11.31
2023-05-12T23:36:54.910Z,11.26
2023-05-12T23:39:21.416Z,11.26
2023-05-12T23:41:47.809Z,11.22
2023-05-12T23:44:14.238Z,11.09
2023-05-12T23:46:42.047Z,11.04
2023-05-12T23:49:09.332Z,10.96
2023-05-12T23:51:36.393Z,10.97
2023-05-12T23:54:03.282Z,10.95
2023-05-12T23:56:29.693Z,11.14
2023-05-12T23:58:56.327Z,11.15
